Time,TemperatureF,DewpointF,PressureIn,WindDirection,WindDirectionDegrees,WindSpeedMPH,WindSpeedGustMPH,Humidity,HourlyPrecipIn,Conditions,Clouds,dailyrainin,SoftwareType,DateUTC
2013-02-24 00:00:00,30.0,24.9,30.05,NW,315,1.0,1.0,81,0.00,,---,0.00,VWS V14.00,2013-02-24 06:00:00,
2013-02-24 00:05:00,29.0,23.9,30.05,NNW,338,1.0,2.0,81,0.00,,---,0.00,VWS V14.00,2013-02-24 06:05:00,
2013-02-24 00:10:00,28.0,23.2,30.05,NNW,338,0.0,0.0,82,0.00,,---,0.00,VWS V14.00,2013-02-24 06:10:00,
2013-02-24 00:15:00,28.0,23.8,30.05,NW,315,1.0,3.0,84,0.00,,---,0.00,VWS V14.00,2013-02-24 06:15:00,
2013-02-24 00:20:00,28.0,23.8,30.05,NNW,338,4.0,5.0,84,0.00,,---,0.00,VWS V14.00,2013-02-24 06:20:00,
2013-02-24 00:25:00,28.0,24.1,30.05,NW,315,2.0,3.0,85,0.00,,---,0.00,VWS V14.00,2013-02-24 06:25:00,
2013-02-24 00:30:00,27.0,23.4,30.06,NW,315,1.0,2.0,86,0.00,,---,0.00,VWS V14.00,2013-02-24 06:30:00,
2013-02-24 00:35:00,27.0,23.6,30.06,NW,315,2.0,3.0,87,0.00,,---,0.00,VWS V14.00,2013-02-24 06:35:00,
2013-02-24 00:40:00,27.0,23.6,30.06,WNW,292,3.0,3.0,87,0.00,,---,0.00,VWS V14.00,2013-02-24 06:40:00,
2013-02-24 00:45:00,27.0,23.6,30.06,NW,315,3.0,3.0,87,0.00,,---,0.00,VWS V14.00,2013-02-24 06:45:00,
2013-02-24 00:50:00,28.0,24.9,30.07,NNW,338,3.0,5.0,88,0.00,,---,0.00,VWS V14.00,2013-02-24 06:50:00,
2013-02-24 00:55:00,27.0,23.9,30.07,NW,315,2.0,3.0,88,0.00,,---,0.00,VWS V14.00,2013-02-24 06:55:00,
2013-02-24 01:00:00,27.0,24.2,30.07,NW,315,2.0,3.0,89,0.00,,---,0.00,VWS V14.00,2013-02-24 07:00:00,
2013-02-24 01:05:00,28.0,25.2,30.07,NNW,338,3.0,4.0,89,0.00,,---,0.00,VWS V14.00,2013-02-24 07:05:00,
2013-02-24 01:10:00,28.0,25.2,30.07,NNW,338,2.0,3.0,89,0.00,,---,0.00,VWS V14.00,2013-02-24 07:10:00,
2013-02-24 01:15:00,28.0,25.2,30.07,NW,315,2.0,3.0,89,0.00,,---,0.00,VWS V14.00,2013-02-24 07:15:00,
2013-02-24 01:20:00,28.0,25.2,30.08,NW,315,1.0,1.0,89,0.00,,---,0.00,VWS V14.00,2013-02-24 07:20:00,
2013-02-24 01:25:00,27.0,24.2,30.08,NW,315,3.0,3.0,89,0.00,,---,0.00,VWS V14.00,2013-02-24 07:25:00,
2013-02-24 01:30:00,27.0,24.2,30.08,WNW,292,2.0,3.0,89,0.00,,---,0.00,VWS V14.00,2013-02-24 07:30:00,
2013-02-24 01:35:00,26.0,23.5,30.08,WNW,292,3.0,4.0,90,0.00,,---,0.00,VWS V14.00,2013-02-24 07:35:00,
2013-02-24 01:40:00,27.0,24.7,30.08,WNW,292,3.0,3.0,91,0.00,,---,0.00,VWS V14.00,2013-02-24 07:40:00,
2013-02-24 01:45:00,27.0,24.5,30.08,WNW,292,3.0,4.0,90,0.00,,---,0.00,VWS V14.00,2013-02-24 07:45:00,
2013-02-24 01:50:00,27.0,24.5,30.08,WNW,292,3.0,3.0,90,0.00,,---,0.00,VWS V14.00,2013-02-24 07:50:00,
2013-02-24 01:55:00,27.0,24.2,30.08,WNW,292,2.0,3.0,89,0.00,,---,0.00,VWS V14.00,2013-02-24 07:55:00,
2013-02-24 02:00:00,27.0,24.2,30.08,WNW,292,0.0,1.0,89,0.00,,---,0.00,VWS V14.00,2013-02-24 08:00:00,
2013-02-24 02:05:00,27.0,24.2,30.08,WNW,292,0.0,0.0,89,0.00,,---,0.00,VWS V14.00,2013-02-24 08:05:00,
2013-02-24 02:10:00,27.0,24.2,30.08,WNW,292,0.0,0.0,89,0.00,,---,0.00,VWS V14.00,2013-02-24 08:10:00,
2013-02-24 02:15:00,27.0,24.2,30.08,NNE,22,1.0,2.0,89,0.00,,---,0.00,VWS V14.00,2013-02-24 08:15:00,
2013-02-24 02:20:00,27.0,24.2,30.08,North,0,1.0,1.0,89,0.00,,---,0.00,VWS V14.00,2013-02-24 08:20:00,
2013-02-24 02:25:00,27.0,24.5,30.08,NNW,338,2.0,2.0,90,0.00,,---,0.00,VWS V14.00,2013-02-24 08:25:00,
2013-02-24 02:30:00,27.0,24.2,30.09,NNW,338,1.0,2.0,89,0.00,,---,0.00,VWS V14.00,2013-02-24 08:30:00,
2013-02-24 02:35:00,27.0,24.2,30.08,NNE,22,1.0,1.0,89,0.00,,---,0.00,VWS V14.00,2013-02-24 08:35:00,
2013-02-24 02:40:00,27.0,24.2,30.08,NE,45,1.0,1.0,89,0.00,,---,0.00,VWS V14.00,2013-02-24 08:40:00,
2013-02-24 02:45:00,27.0,24.5,30.08,NE,45,0.0,0.0,90,0.00,,---,0.00,VWS V14.00,2013-02-24 08:45:00,
2013-02-24 02:50:00,27.0,24.5,30.08,NE,45,0.0,0.0,90,0.00,,---,0.00,VWS V14.00,2013-02-24 08:50:00,
2013-02-24 02:55:00,27.0,24.5,30.08,NE,45,1.0,2.0,90,0.00,,---,0.00,VWS V14.00,2013-02-24 08:55:00,
2013-02-24 03:00:00,27.0,24.7,30.08,NE,45,1.0,1.0,91,0.00,,---,0.00,VWS V14.00,2013-02-24 09:00:00,
2013-02-24 03:05:00,26.0,23.7,30.08,NE,45,0.0,0.0,91,0.00,,---,0.00,VWS V14.00,2013-02-24 09:05:00,
2013-02-24 03:10:00,26.0,23.7,30.08,NE,45,1.0,1.0,91,0.00,,---,0.00,VWS V14.00,2013-02-24 09:10:00,
2013-02-24 03:14:00,26.0,23.7,30.09,NE,45,0.0,0.0,91,0.00,,---,0.00,VWS V14.00,2013-02-24 09:14:00,
2013-02-24 03:19:00,26.0,23.7,30.08,NE,45,0.0,0.0,91,0.00,,---,0.00,VWS V14.00,2013-02-24 09:19:00,
2013-02-24 03:24:00,26.0,24.0,30.08,NE,45,0.0,0.0,92,0.00,,---,0.00,VWS V14.00,2013-02-24 09:24:00,
2013-02-24 03:29:00,26.0,24.0,30.08,NE,45,1.0,2.0,92,0.00,,---,0.00,VWS V14.00,2013-02-24 09:29:00,
2013-02-24 03:34:00,25.0,23.0,30.08,ENE,68,1.0,2.0,92,0.00,,---,0.00,VWS V14.00,2013-02-24 09:34:00,
2013-02-24 03:39:00,25.0,23.3,30.08,ESE,112,1.0,3.0,93,0.00,,---,0.00,VWS V14.00,2013-02-24 09:39:00,
2013-02-24 03:44:00,25.0,23.3,30.09,ESE,112,2.0,3.0,93,0.00,,---,0.00,VWS V14.00,2013-02-24 09:44:00,
2013-02-24 03:49:00,25.0,23.5,30.09,ESE,112,2.0,3.0,94,0.00,,---,0.00,VWS V14.00,2013-02-24 09:49:00,
2013-02-24 03:54:00,26.0,24.5,30.09,ESE,112,2.0,2.0,94,0.00,,---,0.00,VWS V14.00,2013-02-24 09:54:00,
2013-02-24 03:59:00,26.0,24.5,30.09,ESE,112,2.0,3.0,94,0.00,,---,0.00,VWS V14.00,2013-02-24 09:59:00,
2013-02-24 04:04:00,26.0,24.5,30.09,East,90,3.0,3.0,94,0.00,,---,0.00,VWS V14.00,2013-02-24 10:04:00,
2013-02-24 04:09:00,26.0,24.3,30.09,East,90,2.0,2.0,93,0.00,,---,0.00,VWS V14.00,2013-02-24 10:09:00,
2013-02-24 04:14:00,26.0,24.3,30.09,East,90,2.0,2.0,93,0.00,,---,0.00,VWS V14.00,2013-02-24 10:14:00,
2013-02-24 04:19:00,26.0,24.0,30.09,East,90,2.0,3.0,92,0.00,,---,0.00,VWS V14.00,2013-02-24 10:19:00,
2013-02-24 04:24:00,26.0,24.0,30.09,East,90,2.0,3.0,92,0.00,,---,0.00,VWS V14.00,2013-02-24 10:24:00,
2013-02-24 04:29:00,26.0,24.0,30.09,ESE,112,0.0,0.0,92,0.00,,---,0.00,VWS V14.00,2013-02-24 10:29:00,
2013-02-24 04:34:00,24.0,21.8,30.10,ESE,112,1.0,2.0,91,0.00,,---,0.00,VWS V14.00,2013-02-24 10:34:00,
2013-02-24 04:39:00,24.0,22.0,30.10,ESE,112,1.0,2.0,92,0.00,,---,0.00,VWS V14.00,2013-02-24 10:39:00,
2013-02-24 04:44:00,24.0,22.3,30.09,East,90,3.0,3.0,93,0.00,,---,0.00,VWS V14.00,2013-02-24 10:44:00,
2013-02-24 04:49:00,25.0,23.5,30.09,East,90,1.0,2.0,94,0.00,,---,0.00,VWS V14.00,2013-02-24 10:49:00,
2013-02-24 04:54:00,25.0,23.5,30.10,East,90,1.0,1.0,94,0.00,,---,0.00,VWS V14.00,2013-02-24 10:54:00,
2013-02-24 04:59:00,25.0,23.8,30.10,ESE,112,0.0,0.0,95,0.00,,---,0.00,VWS V14.00,2013-02-24 10:59:00,
2013-02-24 05:04:00,25.0,23.5,30.10,ESE,112,0.0,0.0,94,0.00,,---,0.00,VWS V14.00,2013-02-24 11:04:00,
2013-02-24 05:09:00,25.0,23.5,30.10,North,0,0.0,0.0,94,0.00,,---,0.00,VWS V14.00,2013-02-24 11:09:00,
2013-02-24 05:14:00,25.0,23.5,30.10,East,90,0.0,3.0,94,0.00,,---,0.00,VWS V14.00,2013-02-24 11:14:00,
2013-02-24 05:19:00,24.0,22.5,30.10,NE,45,2.0,2.0,94,0.00,,---,0.00,VWS V14.00,2013-02-24 11:19:00,
2013-02-24 05:24:00,24.0,22.5,30.10,NE,45,1.0,1.0,94,0.00,,---,0.00,VWS V14.00,2013-02-24 11:24:00,
2013-02-24 05:29:00,24.0,22.5,30.10,NE,45,0.0,0.0,94,0.00,,---,0.00,VWS V14.00,2013-02-24 11:29:00,
2013-02-24 05:34:00,24.0,22.8,30.10,NE,45,0.0,0.0,95,0.00,,---,0.00,VWS V14.00,2013-02-24 11:34:00,
2013-02-24 05:39:00,24.0,22.8,30.10,NE,45,1.0,2.0,95,0.00,,---,0.00,VWS V14.00,2013-02-24 11:39:00,
2013-02-24 05:44:00,23.0,21.8,30.11,SSE,158,0.0,0.0,95,0.00,,---,0.00,VWS V14.00,2013-02-24 11:44:00,
2013-02-24 05:49:00,22.0,20.8,30.11,SSE,158,0.0,0.0,95,0.00,,---,0.00,VWS V14.00,2013-02-24 11:49:00,
2013-02-24 05:54:00,22.0,21.0,30.11,SSE,158,1.0,2.0,96,0.00,,---,0.00,VWS V14.00,2013-02-24 11:54:00,
2013-02-24 05:59:00,22.0,21.0,30.11,SE,135,1.0,2.0,96,0.00,,---,0.00,VWS V14.00,2013-02-24 11:59:00,
2013-02-24 06:04:00,23.0,22.3,30.12,SE,135,0.0,0.0,97,0.00,,---,0.00,VWS V14.00,2013-02-24 12:04:00,
2013-02-24 06:09:00,23.0,22.3,30.12,SE,135,0.0,0.0,97,0.00,,---,0.00,VWS V14.00,2013-02-24 12:09:00,
2013-02-24 06:14:00,23.0,22.3,30.12,South,180,0.0,0.0,97,0.00,,---,0.00,VWS V14.00,2013-02-24 12:14:00,
2013-02-24 06:19:00,24.0,23.3,30.12,ESE,112,0.0,0.0,97,0.00,,---,0.00,VWS V14.00,2013-02-24 12:19:00,
2013-02-24 06:24:00,24.0,23.3,30.13,ESE,112,0.0,0.0,97,0.00,,---,0.00,VWS V14.00,2013-02-24 12:24:00,
2013-02-24 06:29:00,23.0,22.3,30.12,NNE,22,3.0,3.0,97,0.00,,---,0.00,VWS V14.00,2013-02-24 12:29:00,
2013-02-24 06:34:00,23.0,22.3,30.13,NE,45,3.0,3.0,97,0.00,,---,0.00,VWS V14.00,2013-02-24 12:34:00,
2013-02-24 06:39:00,23.0,22.5,30.13,NE,45,2.0,2.0,98,0.00,,---,0.00,VWS V14.00,2013-02-24 12:39:00,
2013-02-24 06:44:00,23.0,22.3,30.13,NE,45,1.0,1.0,97,0.00,,---,0.00,VWS V14.00,2013-02-24 12:44:00,
2013-02-24 06:49:00,23.0,22.5,30.13,NE,45,2.0,2.0,98,0.00,,---,0.00,VWS V14.00,2013-02-24 12:49:00,
2013-02-24 06:54:00,24.0,23.5,30.14,NE,45,2.0,2.0,98,0.00,,---,0.00,VWS V14.00,2013-02-24 12:54:00,
2013-02-24 06:59:00,24.0,23.5,30.15,NE,45,3.0,3.0,98,0.00,,---,0.00,VWS V14.00,2013-02-24 12:59:00,
2013-02-24 07:04:00,24.0,23.5,30.15,ENE,68,2.0,2.0,98,0.00,,---,0.00,VWS V14.00,2013-02-24 13:04:00,
2013-02-24 07:09:00,24.0,23.5,30.15,South,180,0.0,0.0,98,0.00,,---,0.00,VWS V14.00,2013-02-24 13:09:00,
2013-02-24 07:14:00,24.0,23.3,30.16,South,180,2.0,2.0,97,0.00,,---,0.00,VWS V14.00,2013-02-24 13:14:00,
2013-02-24 07:19:00,24.0,23.3,30.16,South,180,3.0,3.0,97,0.00,,---,0.00,VWS V14.00,2013-02-24 13:19:00,
2013-02-24 07:24:00,24.0,23.3,30.16,NE,45,2.0,3.0,97,0.00,,---,0.00,VWS V14.00,2013-02-24 13:24:00,
2013-02-24 07:29:00,25.0,24.5,30.16,SSW,202,0.0,3.0,98,0.00,,---,0.00,VWS V14.00,2013-02-24 13:29:00,
2013-02-24 07:34:00,26.0,25.5,30.16,WSW,248,0.0,0.0,98,0.00,,---,0.00,VWS V14.00,2013-02-24 13:34:00,
2013-02-24 07:39:00,26.0,25.3,30.16,North,0,1.0,2.0,97,0.00,,---,0.00,VWS V14.00,2013-02-24 13:39:00,
2013-02-24 07:44:00,26.0,25.3,30.17,North,0,0.0,0.0,97,0.00,,---,0.00,VWS V14.00,2013-02-24 13:44:00,
2013-02-24 07:49:00,26.0,25.3,30.17,North,0,0.0,0.0,97,0.00,,---,0.00,VWS V14.00,2013-02-24 13:49:00,
2013-02-24 07:54:00,27.0,26.3,30.18,North,0,0.0,0.0,97,0.00,,---,0.00,VWS V14.00,2013-02-24 13:54:00,
2013-02-24 07:59:00,27.0,26.3,30.18,North,0,2.0,3.0,97,0.00,,---,0.00,VWS V14.00,2013-02-24 13:59:00,
2013-02-24 08:04:00,28.0,27.3,30.17,East,90,3.0,4.0,97,0.00,,---,0.00,VWS V14.00,2013-02-24 14:04:00,
2013-02-24 08:09:00,29.0,28.3,30.17,NNE,22,3.0,4.0,97,0.00,,---,0.00,VWS V14.00,2013-02-24 14:09:00,
2013-02-24 08:14:00,29.0,28.0,30.18,NE,45,3.0,4.0,96,0.00,,---,0.00,VWS V14.00,2013-02-24 14:14:00,
2013-02-24 08:19:00,30.0,28.7,30.18,NNE,22,4.0,4.0,95,0.00,,---,0.00,VWS V14.00,2013-02-24 14:19:00,
2013-02-24 08:24:00,30.0,28.2,30.18,ENE,68,4.0,5.0,93,0.00,,---,0.00,VWS V14.00,2013-02-24 14:24:00,
2013-02-24 08:29:00,31.0,28.7,30.17,NE,45,5.0,5.0,91,0.00,,---,0.00,VWS V14.00,2013-02-24 14:29:00,
2013-02-24 08:34:00,31.0,28.1,30.18,ENE,68,4.0,5.0,89,0.00,,---,0.00,VWS V14.00,2013-02-24 14:34:00,
2013-02-24 08:39:00,32.0,28.9,30.18,East,90,3.0,5.0,88,0.00,,---,0.00,VWS V14.00,2013-02-24 14:39:00,
2013-02-24 08:44:00,33.0,29.0,30.18,East,90,4.0,6.0,85,0.00,,---,0.00,VWS V14.00,2013-02-24 14:44:00,
2013-02-24 08:49:00,33.0,27.5,30.18,East,90,6.0,8.0,80,0.00,,---,0.00,VWS V14.00,2013-02-24 14:49:00,
2013-02-24 08:54:00,34.0,27.2,30.18,ENE,68,7.0,8.0,76,0.00,,---,0.00,VWS V14.00,2013-02-24 14:54:00,
2013-02-24 08:59:00,34.0,26.6,30.18,ENE,68,8.0,10.0,74,0.00,,---,0.00,VWS V14.00,2013-02-24 14:59:00,
2013-02-24 09:04:00,34.0,25.6,30.17,ENE,68,9.0,10.0,71,0.00,,---,0.00,VWS V14.00,2013-02-24 15:04:00,
2013-02-24 09:09:00,35.0,26.2,30.17,ENE,68,3.0,8.0,70,0.00,,---,0.00,VWS V14.00,2013-02-24 15:09:00,
2013-02-24 09:14:00,35.0,26.2,30.17,NE,45,6.0,9.0,70,0.00,,---,0.00,VWS V14.00,2013-02-24 15:14:00,
2013-02-24 09:19:00,36.0,26.5,30.17,ENE,68,6.0,7.0,68,0.00,,---,0.00,VWS V14.00,2013-02-24 15:19:00,
2013-02-24 09:24:00,36.0,26.5,30.18,NNE,22,3.0,5.0,68,0.00,,---,0.00,VWS V14.00,2013-02-24 15:24:00,
2013-02-24 09:29:00,36.0,25.4,30.18,NE,45,4.0,6.0,65,0.00,,---,0.00,VWS V14.00,2013-02-24 15:29:00,
2013-02-24 09:34:00,37.0,25.6,30.18,NE,45,5.0,6.0,63,0.00,,---,0.00,VWS V14.00,2013-02-24 15:34:00,
2013-02-24 09:39:00,37.0,25.6,30.18,NNE,22,10.0,10.0,63,0.00,,---,0.00,VWS V14.00,2013-02-24 15:39:00,
2013-02-24 09:44:00,37.0,26.0,30.18,NE,45,6.0,6.0,64,0.00,,---,0.00,VWS V14.00,2013-02-24 15:44:00,
2013-02-24 09:49:00,37.0,25.6,30.17,East,90,5.0,7.0,63,0.00,,---,0.00,VWS V14.00,2013-02-24 15:49:00,
2013-02-24 09:54:00,37.0,25.2,30.17,NE,45,6.0,8.0,62,0.00,,---,0.00,VWS V14.00,2013-02-24 15:54:00,
2013-02-24 09:59:00,37.0,24.8,30.17,NE,45,10.0,10.0,61,0.00,,---,0.00,VWS V14.00,2013-02-24 15:59:00,
2013-02-24 10:04:00,37.0,24.8,30.17,NE,45,10.0,10.0,61,0.00,,---,0.00,VWS V14.00,2013-02-24 16:04:00,
2013-02-24 10:09:00,38.0,26.1,30.17,ENE,68,5.0,6.0,62,0.00,,---,0.00,VWS V14.00,2013-02-24 16:09:00,
2013-02-24 10:14:00,39.0,26.7,30.17,ENE,68,8.0,10.0,61,0.00,,---,0.00,VWS V14.00,2013-02-24 16:14:00,
2013-02-24 10:19:00,39.0,25.9,30.17,NE,45,5.0,8.0,59,0.00,,---,0.00,VWS V14.00,2013-02-24 16:19:00,
2013-02-24 10:24:00,39.0,25.5,30.17,ENE,68,6.0,6.0,58,0.00,,---,0.00,VWS V14.00,2013-02-24 16:24:00,
2013-02-24 10:29:00,40.0,26.8,30.17,NNE,22,6.0,9.0,59,0.00,,---,0.00,VWS V14.00,2013-02-24 16:29:00,
2013-02-24 10:34:00,40.0,26.0,30.17,NE,45,3.0,5.0,57,0.00,,---,0.00,VWS V14.00,2013-02-24 16:34:00,
2013-02-24 10:39:00,40.0,26.0,30.17,NE,45,4.0,5.0,57,0.00,,---,0.00,VWS V14.00,2013-02-24 16:39:00,
2013-02-24 10:44:00,41.0,27.4,30.17,ENE,68,5.0,8.0,58,0.00,,---,0.00,VWS V14.00,2013-02-24 16:44:00,
2013-02-24 10:49:00,40.0,25.1,30.17,ENE,68,6.0,7.0,55,0.00,,---,0.00,VWS V14.00,2013-02-24 16:49:00,
2013-02-24 10:54:00,41.0,26.1,30.17,ENE,68,5.0,6.0,55,0.00,,---,0.00,VWS V14.00,2013-02-24 16:54:00,
2013-02-24 10:59:00,41.0,26.5,30.17,WNW,292,4.0,5.0,56,0.00,,---,0.00,VWS V14.00,2013-02-24 16:59:00,
2013-02-24 11:04:00,41.0,25.6,30.17,East,90,5.0,6.0,54,0.00,,---,0.00,VWS V14.00,2013-02-24 17:04:00,
2013-02-24 11:09:00,42.0,27.9,30.16,SE,135,3.0,6.0,57,0.00,,---,0.00,VWS V14.00,2013-02-24 17:09:00,
2013-02-24 11:14:00,42.0,27.0,30.16,SSE,158,5.0,7.0,55,0.00,,---,0.00,VWS V14.00,2013-02-24 17:14:00,
2013-02-24 11:19:00,43.0,28.8,30.16,WNW,292,3.0,5.0,57,0.00,,---,0.00,VWS V14.00,2013-02-24 17:19:00,
2013-02-24 11:24:00,43.0,27.5,30.16,SE,135,3.0,5.0,54,0.00,,---,0.00,VWS V14.00,2013-02-24 17:24:00,
2013-02-24 11:29:00,43.0,27.0,30.16,SE,135,3.0,3.0,53,0.00,,---,0.00,VWS V14.00,2013-02-24 17:29:00,
2013-02-24 11:34:00,44.0,28.0,30.16,SSE,158,5.0,5.0,53,0.00,,---,0.00,VWS V14.00,2013-02-24 17:34:00,
2013-02-24 11:39:00,44.0,27.5,30.16,WSW,248,1.0,2.0,52,0.00,,---,0.00,VWS V14.00,2013-02-24 17:39:00,
2013-02-24 11:44:00,45.0,28.9,30.16,SSW,202,2.0,5.0,53,0.00,,---,0.00,VWS V14.00,2013-02-24 17:44:00,
2013-02-24 11:49:00,44.0,27.5,30.16,ESE,112,4.0,5.0,52,0.00,,---,0.00,VWS V14.00,2013-02-24 17:49:00,
2013-02-24 11:54:00,45.0,28.5,30.16,SSE,158,3.0,3.0,52,0.00,,---,0.00,VWS V14.00,2013-02-24 17:54:00,
2013-02-24 11:59:00,44.0,26.6,30.16,East,90,1.0,2.0,50,0.00,,---,0.00,VWS V14.00,2013-02-24 17:59:00,
2013-02-24 12:04:00,45.0,28.0,30.15,East,90,5.0,5.0,51,0.00,,---,0.00,VWS V14.00,2013-02-24 18:04:00,
2013-02-24 12:09:00,46.0,29.4,30.15,SW,225,3.0,4.0,52,0.00,,---,0.00,VWS V14.00,2013-02-24 18:09:00,
2013-02-24 12:14:00,45.0,27.5,30.15,SSE,158,5.0,5.0,50,0.00,,---,0.00,VWS V14.00,2013-02-24 18:14:00,
2013-02-24 12:19:00,45.0,27.0,30.15,SE,135,5.0,5.0,49,0.00,,---,0.00,VWS V14.00,2013-02-24 18:19:00,
2013-02-24 12:24:00,45.0,27.0,30.15,SSW,202,3.0,5.0,49,0.00,,---,0.00,VWS V14.00,2013-02-24 18:24:00,
2013-02-24 12:29:00,46.0,28.4,30.14,SSE,158,4.0,8.0,50,0.00,,---,0.00,VWS V14.00,2013-02-24 18:29:00,
2013-02-24 12:34:00,46.0,27.9,30.14,SSE,158,5.0,6.0,49,0.00,,---,0.00,VWS V14.00,2013-02-24 18:34:00,
2013-02-24 12:39:00,46.0,27.4,30.14,ENE,68,5.0,5.0,48,0.00,,---,0.00,VWS V14.00,2013-02-24 18:39:00,
2013-02-24 12:44:00,46.0,27.4,30.14,ESE,112,5.0,5.0,48,0.00,,---,0.00,VWS V14.00,2013-02-24 18:44:00,
2013-02-24 12:49:00,47.0,27.8,30.13,SSE,158,2.0,3.0,47,0.00,,---,0.00,VWS V14.00,2013-02-24 18:49:00,
2013-02-24 12:54:00,47.0,28.3,30.13,NNE,22,6.0,7.0,48,0.00,,---,0.00,VWS V14.00,2013-02-24 18:54:00,
2013-02-24 12:59:00,47.0,27.3,30.13,ESE,112,1.0,1.0,46,0.00,,---,0.00,VWS V14.00,2013-02-24 18:59:00,
2013-02-24 13:04:00,48.0,28.2,30.13,SSE,158,5.0,5.0,46,0.00,,---,0.00,VWS V14.00,2013-02-24 19:04:00,
2013-02-24 13:09:00,46.0,25.9,30.13,ESE,112,4.0,6.0,45,0.00,,---,0.00,VWS V14.00,2013-02-24 19:09:00,
2013-02-24 13:14:00,47.0,27.8,30.13,SE,135,3.0,3.0,47,0.00,,---,0.00,VWS V14.00,2013-02-24 19:14:00,
2013-02-24 13:19:00,48.0,28.8,30.13,East,90,6.0,6.0,47,0.00,,---,0.00,VWS V14.00,2013-02-24 19:19:00,
2013-02-24 13:24:00,48.0,28.2,30.13,South,180,1.0,2.0,46,0.00,,---,0.00,VWS V14.00,2013-02-24 19:24:00,
2013-02-24 13:29:00,48.0,27.7,30.13,ESE,112,6.0,8.0,45,0.00,,---,0.00,VWS V14.00,2013-02-24 19:29:00,
2013-02-24 13:34:00,48.0,27.7,30.12,SE,135,6.0,7.0,45,0.00,,---,0.00,VWS V14.00,2013-02-24 19:34:00,
2013-02-24 13:39:00,48.0,26.6,30.12,East,90,8.0,10.0,43,0.00,,---,0.00,VWS V14.00,2013-02-24 19:39:00,
2013-02-24 13:44:00,48.0,27.1,30.12,SSE,158,4.0,5.0,44,0.00,,---,0.00,VWS V14.00,2013-02-24 19:44:00,
2013-02-24 13:49:00,48.0,27.1,30.12,SSE,158,6.0,8.0,44,0.00,,---,0.00,VWS V14.00,2013-02-24 19:49:00,
2013-02-24 13:54:00,48.0,27.1,30.12,SSE,158,5.0,6.0,44,0.00,,---,0.00,VWS V14.00,2013-02-24 19:54:00,
2013-02-24 13:59:00,49.0,28.6,30.12,East,90,5.0,7.0,45,0.00,,---,0.00,VWS V14.00,2013-02-24 19:59:00,
2013-02-24 14:04:00,49.0,28.6,30.12,SSE,158,5.0,5.0,45,0.00,,---,0.00,VWS V14.00,2013-02-24 20:04:00,
2013-02-24 14:09:00,49.0,29.1,30.12,East,90,5.0,6.0,46,0.00,,---,0.00,VWS V14.00,2013-02-24 20:09:00,
2013-02-24 14:14:00,49.0,28.6,30.12,SE,135,7.0,9.0,45,0.00,,---,0.00,VWS V14.00,2013-02-24 20:14:00,
2013-02-24 14:19:00,50.0,30.0,30.11,SE,135,5.0,5.0,46,0.00,,---,0.00,VWS V14.00,2013-02-24 20:19:00,
2013-02-24 14:24:00,49.0,28.0,30.11,NE,45,0.0,0.0,44,0.00,,---,0.00,VWS V14.00,2013-02-24 20:24:00,
2013-02-24 14:29:00,49.0,28.0,30.11,East,90,2.0,2.0,44,0.00,,---,0.00,VWS V14.00,2013-02-24 20:29:00,
2013-02-24 14:34:00,50.0,29.5,30.11,SSE,158,5.0,5.0,45,0.00,,---,0.00,VWS V14.00,2013-02-24 20:34:00,
2013-02-24 14:39:00,50.0,31.1,30.10,SE,135,2.0,3.0,48,0.00,,---,0.00,VWS V14.00,2013-02-24 20:39:00,
2013-02-24 14:44:00,50.0,30.0,30.10,ESE,112,5.0,5.0,46,0.00,,---,0.00,VWS V14.00,2013-02-24 20:44:00,
2013-02-24 14:49:00,50.0,30.0,30.10,South,180,4.0,5.0,46,0.00,,---,0.00,VWS V14.00,2013-02-24 20:49:00,
2013-02-24 14:54:00,50.0,29.5,30.09,SSE,158,4.0,4.0,45,0.00,,---,0.00,VWS V14.00,2013-02-24 20:54:00,
2013-02-24 14:59:00,50.0,29.5,30.09,East,90,8.0,8.0,45,0.00,,---,0.00,VWS V14.00,2013-02-24 20:59:00,
2013-02-24 15:04:00,50.0,29.5,30.09,NE,45,4.0,4.0,45,0.00,,---,0.00,VWS V14.00,2013-02-24 21:04:00,
2013-02-24 15:09:00,50.0,29.5,30.09,SSE,158,6.0,6.0,45,0.00,,---,0.00,VWS V14.00,2013-02-24 21:09:00,
2013-02-24 15:14:00,50.0,29.5,30.09,ESE,112,7.0,8.0,45,0.00,,---,0.00,VWS V14.00,2013-02-24 21:14:00,
2013-02-24 15:19:00,51.0,31.0,30.08,SE,135,6.0,6.0,46,0.00,,---,0.00,VWS V14.00,2013-02-24 21:19:00,
2013-02-24 15:24:00,50.0,28.4,30.08,East,90,5.0,5.0,43,0.00,,---,0.00,VWS V14.00,2013-02-24 21:24:00,
2013-02-24 15:29:00,51.0,29.9,30.08,ESE,112,5.0,7.0,44,0.00,,---,0.00,VWS V14.00,2013-02-24 21:29:00,
2013-02-24 15:34:00,51.0,29.9,30.08,East,90,5.0,6.0,44,0.00,,---,0.00,VWS V14.00,2013-02-24 21:34:00,
2013-02-24 15:39:00,50.0,28.4,30.08,NE,45,6.0,6.0,43,0.00,,---,0.00,VWS V14.00,2013-02-24 21:39:00,
2013-02-24 15:44:00,51.0,29.3,30.08,East,90,8.0,10.0,43,0.00,,---,0.00,VWS V14.00,2013-02-24 21:44:00,
2013-02-24 15:49:00,51.0,29.3,30.08,SE,135,6.0,6.0,43,0.00,,---,0.00,VWS V14.00,2013-02-24 21:49:00,
2013-02-24 15:54:00,51.0,29.3,30.08,SSE,158,1.0,1.0,43,0.00,,---,0.00,VWS V14.00,2013-02-24 21:54:00,
2013-02-24 15:59:00,51.0,28.7,30.08,ESE,112,1.0,2.0,42,0.00,,---,0.00,VWS V14.00,2013-02-24 21:59:00,
2013-02-24 16:04:00,51.0,28.7,30.08,ENE,68,6.0,8.0,42,0.00,,---,0.00,VWS V14.00,2013-02-24 22:04:00,
2013-02-24 16:09:00,51.0,29.3,30.08,ENE,68,4.0,4.0,43,0.00,,---,0.00,VWS V14.00,2013-02-24 22:09:00,
2013-02-24 16:14:00,51.0,29.9,30.08,ESE,112,8.0,8.0,44,0.00,,---,0.00,VWS V14.00,2013-02-24 22:14:00,
2013-02-24 16:19:00,51.0,29.9,30.08,ESE,112,5.0,5.0,44,0.00,,---,0.00,VWS V14.00,2013-02-24 22:19:00,
2013-02-24 16:24:00,50.0,28.4,30.08,ENE,68,5.0,6.0,43,0.00,,---,0.00,VWS V14.00,2013-02-24 22:24:00,
2013-02-24 16:29:00,50.0,28.4,30.08,SE,135,3.0,3.0,43,0.00,,---,0.00,VWS V14.00,2013-02-24 22:29:00,
2013-02-24 16:34:00,50.0,29.0,30.08,East,90,5.0,5.0,44,0.00,,---,0.00,VWS V14.00,2013-02-24 22:34:00,
2013-02-24 16:39:00,50.0,29.0,30.08,ENE,68,6.0,6.0,44,0.00,,---,0.00,VWS V14.00,2013-02-24 22:39:00,
2013-02-24 16:44:00,50.0,29.0,30.08,ENE,68,3.0,3.0,44,0.00,,---,0.00,VWS V14.00,2013-02-24 22:44:00,
2013-02-24 16:49:00,50.0,29.5,30.08,ESE,112,5.0,6.0,45,0.00,,---,0.00,VWS V14.00,2013-02-24 22:49:00,
2013-02-24 16:54:00,50.0,29.0,30.08,East,90,5.0,8.0,44,0.00,,---,0.00,VWS V14.00,2013-02-24 22:54:00,
2013-02-24 16:59:00,50.0,29.0,30.08,ENE,68,4.0,5.0,44,0.00,,---,0.00,VWS V14.00,2013-02-24 22:59:00,
2013-02-24 17:04:00,50.0,29.0,30.08,East,90,3.0,6.0,44,0.00,,---,0.00,VWS V14.00,2013-02-24 23:04:00,
2013-02-24 17:09:00,50.0,29.5,30.08,East,90,6.0,6.0,45,0.00,,---,0.00,VWS V14.00,2013-02-24 23:09:00,
2013-02-24 17:14:00,50.0,29.5,30.08,East,90,6.0,6.0,45,0.00,,---,0.00,VWS V14.00,2013-02-24 23:14:00,
2013-02-24 17:19:00,49.0,28.6,30.08,East,90,3.0,5.0,45,0.00,,---,0.00,VWS V14.00,2013-02-24 23:19:00,
2013-02-24 17:24:00,49.0,28.6,30.08,ESE,112,5.0,5.0,45,0.00,,---,0.00,VWS V14.00,2013-02-24 23:24:00,
2013-02-24 17:29:00,49.0,28.6,30.08,ENE,68,4.0,4.0,45,0.00,,---,0.00,VWS V14.00,2013-02-24 23:29:00,
2013-02-24 17:34:00,49.0,28.6,30.08,East,90,4.0,6.0,45,0.00,,---,0.00,VWS V14.00,2013-02-24 23:34:00,
2013-02-24 17:39:00,48.0,28.2,30.08,East,90,4.0,5.0,46,0.00,,---,0.00,VWS V14.00,2013-02-24 23:39:00,
2013-02-24 17:44:00,48.0,28.2,30.08,ESE,112,3.0,6.0,46,0.00,,---,0.00,VWS V14.00,2013-02-24 23:44:00,
2013-02-24 17:49:00,48.0,28.2,30.08,ESE,112,5.0,5.0,46,0.00,,---,0.00,VWS V14.00,2013-02-24 23:49:00,
2013-02-24 17:54:00,48.0,28.8,30.08,East,90,3.0,5.0,47,0.00,,---,0.00,VWS V14.00,2013-02-24 23:54:00,
2013-02-24 17:59:00,48.0,28.8,30.09,East,90,3.0,4.0,47,0.00,,---,0.00,VWS V14.00,2013-02-24 23:59:00,
2013-02-24 18:04:00,48.0,29.3,30.09,East,90,4.0,5.0,48,0.00,,---,0.00,VWS V14.00,2013-02-25 00:04:00,
2013-02-24 18:09:00,47.0,28.3,30.09,ENE,68,4.0,5.0,48,0.00,,---,0.00,VWS V14.00,2013-02-25 00:09:00,
2013-02-24 18:14:00,47.0,29.3,30.09,NE,45,4.0,5.0,50,0.00,,---,0.00,VWS V14.00,2013-02-25 00:14:00,
2013-02-24 18:19:00,46.0,28.4,30.09,NE,45,7.0,8.0,50,0.00,,---,0.00,VWS V14.00,2013-02-25 00:19:00,
2013-02-24 18:24:00,46.0,28.9,30.09,ENE,68,6.0,9.0,51,0.00,,---,0.00,VWS V14.00,2013-02-25 00:24:00,
2013-02-24 18:29:00,46.0,29.4,30.09,NE,45,6.0,10.0,52,0.00,,---,0.00,VWS V14.00,2013-02-25 00:29:00,
2013-02-24 18:34:00,46.0,29.8,30.09,NE,45,5.0,7.0,53,0.00,,---,0.00,VWS V14.00,2013-02-25 00:34:00,
2013-02-24 18:39:00,45.0,28.9,30.09,ENE,68,8.0,9.0,53,0.00,,---,0.00,VWS V14.00,2013-02-25 00:39:00,
2013-02-24 18:44:00,45.0,29.4,30.09,NE,45,8.0,10.0,54,0.00,,---,0.00,VWS V14.00,2013-02-25 00:44:00,
2013-02-24 18:49:00,45.0,29.8,30.09,NE,45,9.0,9.0,55,0.00,,---,0.00,VWS V14.00,2013-02-25 00:49:00,
2013-02-24 18:54:00,44.0,28.9,30.09,NE,45,6.0,8.0,55,0.00,,---,0.00,VWS V14.00,2013-02-25 00:54:00,
2013-02-24 18:59:00,44.0,29.3,30.09,NE,45,9.0,10.0,56,0.00,,---,0.00,VWS V14.00,2013-02-25 00:59:00,
2013-02-24 19:04:00,44.0,29.8,30.09,ENE,68,7.0,11.0,57,0.00,,---,0.00,VWS V14.00,2013-02-25 01:04:00,
2013-02-24 19:09:00,44.0,29.8,30.09,NE,45,7.0,9.0,57,0.00,,---,0.00,VWS V14.00,2013-02-25 01:09:00,
2013-02-24 19:14:00,44.0,29.8,30.09,ENE,68,7.0,11.0,57,0.00,,---,0.00,VWS V14.00,2013-02-25 01:14:00,
2013-02-24 19:19:00,44.0,30.2,30.09,NE,45,7.0,11.0,58,0.00,,---,0.00,VWS V14.00,2013-02-25 01:19:00,
2013-02-24 19:24:00,43.0,29.2,30.09,ENE,68,7.0,11.0,58,0.00,,---,0.00,VWS V14.00,2013-02-25 01:24:00,
2013-02-24 19:29:00,43.0,29.7,30.09,NE,45,6.0,9.0,59,0.00,,---,0.00,VWS V14.00,2013-02-25 01:29:00,
2013-02-24 19:34:00,43.0,29.7,30.09,ENE,68,6.0,9.0,59,0.00,,---,0.00,VWS V14.00,2013-02-25 01:34:00,
2013-02-24 19:39:00,43.0,29.7,30.09,NE,45,8.0,11.0,59,0.00,,---,0.00,VWS V14.00,2013-02-25 01:39:00,
2013-02-24 19:44:00,43.0,30.1,30.09,ENE,68,8.0,10.0,60,0.00,,---,0.00,VWS V14.00,2013-02-25 01:44:00,
2013-02-24 19:49:00,42.0,29.1,30.09,NE,45,6.0,9.0,60,0.00,,---,0.00,VWS V14.00,2013-02-25 01:49:00,
2013-02-24 19:54:00,42.0,29.5,30.09,NE,45,8.0,9.0,61,0.00,,---,0.00,VWS V14.00,2013-02-25 01:54:00,
2013-02-24 19:59:00,42.0,29.5,30.09,NE,45,7.0,10.0,61,0.00,,---,0.00,VWS V14.00,2013-02-25 01:59:00,
2013-02-24 20:04:00,42.0,29.9,30.09,NE,45,6.0,7.0,62,0.00,,---,0.00,VWS V14.00,2013-02-25 02:04:00,
2013-02-24 20:09:00,41.0,29.4,30.09,NE,45,8.0,10.0,63,0.00,,---,0.00,VWS V14.00,2013-02-25 02:09:00,
2013-02-24 20:14:00,41.0,29.4,30.09,NE,45,8.0,8.0,63,0.00,,---,0.00,VWS V14.00,2013-02-25 02:14:00,
2013-02-24 20:19:00,41.0,29.8,30.09,ENE,68,6.0,10.0,64,0.00,,---,0.00,VWS V14.00,2013-02-25 02:19:00,
2013-02-24 20:24:00,41.0,29.8,30.08,NE,45,5.0,8.0,64,0.00,,---,0.00,VWS V14.00,2013-02-25 02:24:00,
2013-02-24 20:29:00,41.0,30.1,30.08,NE,45,8.0,9.0,65,0.00,,---,0.00,VWS V14.00,2013-02-25 02:29:00,
2013-02-24 20:34:00,41.0,30.1,30.09,NE,45,6.0,10.0,65,0.00,,---,0.00,VWS V14.00,2013-02-25 02:34:00,
2013-02-24 20:39:00,40.0,29.6,30.09,ENE,68,6.0,10.0,66,0.00,,---,0.00,VWS V14.00,2013-02-25 02:39:00,
2013-02-24 20:44:00,40.0,29.6,30.08,NE,45,6.0,8.0,66,0.00,,---,0.00,VWS V14.00,2013-02-25 02:44:00,
2013-02-24 20:49:00,40.0,29.6,30.08,NE,45,5.0,10.0,66,0.00,,---,0.00,VWS V14.00,2013-02-25 02:49:00,
2013-02-24 20:54:00,40.0,29.9,30.09,NE,45,5.0,9.0,67,0.00,,---,0.00,VWS V14.00,2013-02-25 02:54:00,
2013-02-24 20:59:00,40.0,29.9,30.09,ENE,68,7.0,9.0,67,0.00,,---,0.00,VWS V14.00,2013-02-25 02:59:00,
2013-02-24 21:04:00,40.0,29.9,30.09,NE,45,5.0,8.0,67,0.00,,---,0.00,VWS V14.00,2013-02-25 03:04:00,
2013-02-24 21:09:00,40.0,29.9,30.09,NE,45,6.0,8.0,67,0.00,,---,0.00,VWS V14.00,2013-02-25 03:09:00,
2013-02-24 21:14:00,40.0,29.9,30.09,NE,45,6.0,8.0,67,0.00,,---,0.00,VWS V14.00,2013-02-25 03:14:00,
2013-02-24 21:19:00,40.0,30.3,30.08,ENE,68,8.0,9.0,68,0.00,,---,0.00,VWS V14.00,2013-02-25 03:19:00,
2013-02-24 21:24:00,40.0,30.3,30.08,ENE,68,5.0,8.0,68,0.00,,---,0.00,VWS V14.00,2013-02-25 03:24:00,
2013-02-24 21:29:00,40.0,30.3,30.08,East,90,8.0,8.0,68,0.00,,---,0.00,VWS V14.00,2013-02-25 03:29:00,
2013-02-24 21:34:00,40.0,30.3,30.08,NE,45,8.0,11.0,68,0.00,,---,0.00,VWS V14.00,2013-02-25 03:34:00,
2013-02-24 21:39:00,40.0,30.3,30.08,ENE,68,6.0,10.0,68,0.00,,---,0.00,VWS V14.00,2013-02-25 03:39:00,
2013-02-24 21:44:00,40.0,30.3,30.08,ENE,68,8.0,10.0,68,0.00,,---,0.00,VWS V14.00,2013-02-25 03:44:00,
2013-02-24 21:49:00,40.0,30.3,30.07,NE,45,6.0,8.0,68,0.00,,---,0.00,VWS V14.00,2013-02-25 03:49:00,
2013-02-24 21:54:00,39.0,29.4,30.07,ENE,68,8.0,10.0,68,0.00,,---,0.00,VWS V14.00,2013-02-25 03:54:00,
2013-02-24 21:58:00,39.0,29.4,30.07,ENE,68,9.0,11.0,68,0.00,,---,0.00,VWS V14.00,2013-02-25 03:58:00,
2013-02-24 22:03:00,39.0,29.4,30.07,NE,45,6.0,8.0,68,0.00,,---,0.00,VWS V14.00,2013-02-25 04:03:00,
2013-02-24 22:08:00,39.0,29.4,30.07,ENE,68,7.0,10.0,68,0.00,,---,0.00,VWS V14.00,2013-02-25 04:08:00,
2013-02-24 22:13:00,39.0,29.4,30.06,NE,45,6.0,9.0,68,0.00,,---,0.00,VWS V14.00,2013-02-25 04:13:00,
2013-02-24 22:18:00,39.0,29.4,30.06,NE,45,7.0,8.0,68,0.00,,---,0.00,VWS V14.00,2013-02-25 04:18:00,
2013-02-24 22:23:00,39.0,29.4,30.06,NE,45,7.0,10.0,68,0.00,,---,0.00,VWS V14.00,2013-02-25 04:23:00,
2013-02-24 22:28:00,39.0,29.0,30.06,NE,45,6.0,10.0,67,0.00,,---,0.00,VWS V14.00,2013-02-25 04:28:00,
2013-02-24 22:33:00,39.0,29.4,30.06,NE,45,6.0,8.0,68,0.00,,---,0.00,VWS V14.00,2013-02-25 04:33:00,
2013-02-24 22:38:00,39.0,29.4,30.06,NE,45,6.0,8.0,68,0.00,,---,0.00,VWS V14.00,2013-02-25 04:38:00,
2013-02-24 22:43:00,39.0,29.4,30.05,NE,45,7.0,10.0,68,0.00,,---,0.00,VWS V14.00,2013-02-25 04:43:00,
2013-02-24 22:49:00,39.0,29.4,30.05,NE,45,8.0,11.0,68,0.00,,---,0.00,VWS V14.00,2013-02-25 04:49:00,
2013-02-24 22:54:00,39.0,29.0,30.05,NE,45,6.0,8.0,67,0.00,,---,0.00,VWS V14.00,2013-02-25 04:54:00,
2013-02-24 22:59:00,39.0,29.0,30.05,NE,45,5.0,8.0,67,0.00,,---,0.00,VWS V14.00,2013-02-25 04:59:00,
2013-02-24 23:00:00,39.0,29.0,30.05,NE,45,6.0,9.0,67,0.00,,---,0.00,VWS V14.00,2013-02-25 05:00:00,
2013-02-24 23:05:00,38.0,28.0,30.05,ENE,68,8.0,8.0,67,0.00,,---,0.00,VWS V14.00,2013-02-25 05:05:00,
2013-02-24 23:10:00,39.0,29.4,30.05,NE,45,5.0,7.0,68,0.00,,---,0.00,VWS V14.00,2013-02-25 05:10:00,
2013-02-24 23:15:00,39.0,29.0,30.05,NE,45,6.0,6.0,67,0.00,,---,0.00,VWS V14.00,2013-02-25 05:15:00,
2013-02-24 23:20:00,38.0,28.4,30.05,NNE,22,8.0,8.0,68,0.00,,---,0.00,VWS V14.00,2013-02-25 05:20:00,
2013-02-24 23:25:00,38.0,28.4,30.04,NNE,22,6.0,8.0,68,0.00,,---,0.00,VWS V14.00,2013-02-25 05:25:00,
2013-02-24 23:30:00,38.0,28.4,30.03,NE,45,6.0,11.0,68,0.00,,---,0.00,VWS V14.00,2013-02-25 05:30:00,
2013-02-24 23:35:00,38.0,28.4,30.03,ENE,68,9.0,9.0,68,0.00,,---,0.00,VWS V14.00,2013-02-25 05:35:00,
2013-02-24 23:40:00,38.0,28.4,30.03,NE,45,8.0,10.0,68,0.00,,---,0.00,VWS V14.00,2013-02-25 05:40:00,
2013-02-24 23:45:00,38.0,28.0,30.03,ENE,68,3.0,3.0,67,0.00,,---,0.00,VWS V14.00,2013-02-25 05:45:00,
2013-02-24 23:50:00,38.0,28.0,30.04,NE,45,5.0,5.0,67,0.00,,---,0.00,VWS V14.00,2013-02-25 05:50:00,
2013-02-24 23:55:00,38.0,28.0,30.03,NE,45,5.0,6.0,67,0.00,,---,0.00,VWS V14.00,2013-02-25 05:55:00,